Time;durP1;ratioP1;P1;durP2;ratioP2;P2;SDS_P1;SDS_P2;PMS_P1;PMS_P2;Temp;Humidity;BMP_temperature;BMP_pressure;BME280_temperature;BME280_humidity;BME280_pressure;Samples;Min_cycle;Max_cycle;Signal;HPM_P1;HPM_P2
2022/01/17 00:00:18;;;;;;;91.30;29.85;;;4.20;99.90;;;;;;5030864;28;20026;-59
2022/01/17 00:02:46;;;;;;;84.85;30.60;;;4.20;99.90;;;;;;5031076;28;20395;-59
2022/01/17 00:05:11;;;;;;;87.95;31.33;;;4.10;99.90;;;;;;5025291;28;20033;-59
2022/01/17 00:07:37;;;;;;;84.00;30.63;;;4.20;99.90;;;;;;5020914;28;20037;-59
2022/01/17 00:10:05;;;;;;;76.93;29.60;;;4.20;99.90;;;;;;5022028;28;20487;-59
2022/01/17 00:12:35;;;;;;;76.20;28.75;;;4.20;99.90;;;;;;5029049;28;20033;-58
2022/01/17 00:15:01;;;;;;;80.55;28.25;;;4.20;99.90;;;;;;5028526;28;20033;-60
2022/01/17 00:17:37;;;;;;;70.72;27.90;;;4.30;99.90;;;;;;5024145;28;20121;-57
2022/01/17 00:20:11;;;;;;;75.97;28.88;;;4.20;99.90;;;;;;5023766;28;20030;-61
2022/01/17 00:22:39;;;;;;;76.60;28.08;;;4.20;99.90;;;;;;5006036;28;20038;-58
2022/01/17 00:25:05;;;;;;;80.03;29.38;;;4.20;99.90;;;;;;5022870;28;20040;-60
2022/01/17 00:27:32;;;;;;;79.75;29.73;;;4.20;99.90;;;;;;5021061;28;20446;-59
2022/01/17 00:29:58;;;;;;;72.13;30.52;;;4.30;99.90;;;;;;5025119;28;20515;-60
2022/01/17 00:32:24;;;;;;;76.50;31.75;;;4.30;99.90;;;;;;5010766;28;20026;-59
2022/01/17 00:34:49;;;;;;;85.65;31.60;;;4.30;99.90;;;;;;5028496;28;20029;-60
2022/01/17 00:37:15;;;;;;;76.78;30.20;;;4.30;99.90;;;;;;5024636;28;20626;-60
2022/01/17 00:39:41;;;;;;;76.63;32.08;;;4.30;99.90;;;;;;5017347;28;20037;-60
2022/01/17 00:42:06;;;;;;;73.07;30.15;;;4.30;99.90;;;;;;5027600;28;20036;-59
2022/01/17 00:44:32;;;;;;;72.28;28.80;;;4.40;99.90;;;;;;5029182;28;20089;-59
2022/01/17 00:46:58;;;;;;;73.32;30.65;;;4.40;99.90;;;;;;5031766;28;20040;-59
2022/01/17 00:49:23;;;;;;;71.20;28.63;;;4.40;99.90;;;;;;5036764;28;20037;-59
2022/01/17 00:51:49;;;;;;;73.75;28.40;;;4.40;99.90;;;;;;5019977;28;20032;-58
2022/01/17 00:54:15;;;;;;;67.95;29.45;;;4.40;99.90;;;;;;5020388;28;20821;-59
2022/01/17 00:56:41;;;;;;;63.20;28.17;;;4.40;99.90;;;;;;5026822;28;20120;-59
2022/01/17 00:59:06;;;;;;;61.72;27.50;;;4.40;99.90;;;;;;5025803;28;20053;-59
2022/01/17 01:01:32;;;;;;;69.47;27.25;;;4.40;99.90;;;;;;5028440;28;20108;-59
2022/01/17 01:03:58;;;;;;;59.70;25.73;;;4.40;99.90;;;;;;5029526;28;20034;-59
2022/01/17 01:06:23;;;;;;;56.63;23.55;;;4.40;99.90;;;;;;5021014;28;20045;-59
2022/01/17 01:08:49;;;;;;;55.15;26.05;;;4.40;99.90;;;;;;5022574;28;20057;-59
2022/01/17 01:11:14;;;;;;;58.67;24.92;;;4.40;99.90;;;;;;5018164;28;20033;-59
2022/01/17 01:13:40;;;;;;;58.03;24.42;;;4.40;99.90;;;;;;5028865;28;20053;-59
2022/01/17 01:16:22;;;;;;;62.13;24.42;;;4.40;99.90;;;;;;5025130;28;20129;-59
2022/01/17 01:29:32;;;;;;;56.13;23.07;;;4.40;99.90;;;;;;5033254;28;19951;-59
2022/01/17 01:32:03;;;;;;;52.25;23.42;;;4.40;99.90;;;;;;5032068;28;20029;-58
2022/01/17 01:34:40;;;;;;;57.45;25.00;;;4.40;99.90;;;;;;5029649;28;20036;-59
2022/01/17 01:37:06;;;;;;;60.40;26.38;;;4.40;99.90;;;;;;5028081;28;20087;-60
2022/01/17 01:39:33;;;;;;;65.03;25.98;;;4.40;99.90;;;;;;5024474;28;20036;-59
2022/01/17 01:41:59;;;;;;;66.07;26.65;;;4.40;99.90;;;;;;5024653;28;20022;-59
2022/01/17 01:44:27;;;;;;;63.53;25.60;;;4.40;99.90;;;;;;5024902;28;20052;-59
2022/01/17 01:46:54;;;;;;;66.93;26.80;;;4.40;99.90;;;;;;5025630;28;20053;-60
2022/01/17 01:49:21;;;;;;;77.00;27.80;;;4.40;99.90;;;;;;5020236;28;20034;-58
2022/01/17 01:51:48;;;;;;;67.13;26.70;;;4.40;99.90;;;;;;5020747;28;20554;-59
2022/01/17 01:54:14;;;;;;;64.15;27.38;;;4.40;99.90;;;;;;5026012;28;20021;-58
2022/01/17 01:56:45;;;;;;;74.55;27.30;;;4.40;99.90;;;;;;5028529;28;20070;-60
2022/01/17 01:59:12;;;;;;;76.47;27.65;;;4.40;99.90;;;;;;5023609;28;20086;-60
2022/01/17 02:01:38;;;;;;;62.95;25.60;;;4.40;99.90;;;;;;5028178;28;20033;-59
2022/01/17 02:04:04;;;;;;;72.68;25.05;;;4.40;99.90;;;;;;5027502;28;20445;-59
2022/01/17 02:06:32;;;;;;;64.32;25.65;;;4.30;99.90;;;;;;5031785;28;20480;-59
2022/01/17 02:08:58;;;;;;;69.43;26.70;;;4.30;99.90;;;;;;5031788;28;20026;-59
2022/01/17 02:11:24;;;;;;;70.63;27.65;;;4.30;99.90;;;;;;5029673;28;20025;-60
2022/01/17 02:13:50;;;;;;;70.68;27.00;;;4.30;99.90;;;;;;5032182;28;20033;-60
2022/01/17 02:16:16;;;;;;;67.63;27.58;;;4.40;99.90;;;;;;5032186;28;20026;-60
2022/01/17 02:18:45;;;;;;;72.63;27.15;;;4.30;99.90;;;;;;5026395;28;20030;-59
2022/01/17 02:21:21;;;;;;;68.25;26.65;;;4.40;99.90;;;;;;5021614;28;20028;-59
2022/01/17 02:23:51;;;;;;;73.53;26.67;;;4.40;99.90;;;;;;5009240;28;20116;-60
2022/01/17 02:26:18;;;;;;;81.50;29.92;;;4.40;99.90;;;;;;5026843;28;20029;-60
2022/01/17 02:28:49;;;;;;;77.57;28.42;;;4.40;99.90;;;;;;5033594;28;20535;-60
2022/01/17 02:31:16;;;;;;;78.40;28.23;;;4.40;99.90;;;;;;5032833;28;20025;-60
2022/01/17 02:33:43;;;;;;;81.22;30.02;;;4.30;99.90;;;;;;5033014;28;20117;-59
2022/01/17 02:36:09;;;;;;;78.65;28.88;;;4.40;99.90;;;;;;5024331;28;20188;-59
2022/01/17 02:38:37;;;;;;;78.43;30.90;;;4.40;99.90;;;;;;5024142;28;20029;-59
2022/01/17 02:41:03;;;;;;;81.03;29.25;;;4.40;99.90;;;;;;5019403;28;20017;-59
2022/01/17 02:43:31;;;;;;;73.55;29.15;;;4.40;99.90;;;;;;5025716;28;20613;-59
2022/01/17 02:48:25;;;;;;;77.65;29.20;;;4.40;99.90;;;;;;5029313;28;20675;-60
2022/01/17 02:50:50;;;;;;;86.97;29.13;;;4.40;99.90;;;;;;5021975;28;20033;-59
2022/01/17 02:53:16;;;;;;;81.45;31.05;;;4.40;99.90;;;;;;5020297;28;20029;-60
2022/01/17 02:55:50;;;;;;;84.07;29.80;;;4.30;99.90;;;;;;5021355;28;20104;-59
2022/01/17 02:58:19;;;;;;;87.90;29.33;;;4.40;99.90;;;;;;5029990;28;20026;-59
2022/01/17 03:00:45;;;;;;;80.80;29.65;;;4.40;99.90;;;;;;5027866;28;20626;-60
2022/01/17 03:03:18;;;;;;;82.45;30.05;;;4.40;99.90;;;;;;5030363;28;20026;-60
2022/01/17 03:05:45;;;;;;;74.28;29.33;;;4.40;99.90;;;;;;5026924;28;20049;-60
2022/01/17 03:08:11;;;;;;;84.32;30.58;;;4.40;99.90;;;;;;5024811;28;20059;-59
2022/01/17 03:10:40;;;;;;;105.95;34.55;;;4.40;99.90;;;;;;5031036;28;20036;-59
2022/01/17 03:13:09;;;;;;;91.68;32.58;;;4.40;99.90;;;;;;5030725;28;20376;-58
2022/01/17 03:15:35;;;;;;;96.28;30.90;;;4.40;99.90;;;;;;5028007;28;20546;-59
2022/01/17 03:18:02;;;;;;;102.22;35.97;;;4.40;99.90;;;;;;5032426;28;20040;-59
2022/01/17 03:20:28;;;;;;;83.53;32.47;;;4.40;99.90;;;;;;5025499;28;20029;-59
2022/01/17 03:22:54;;;;;;;98.45;34.28;;;4.50;99.90;;;;;;5005616;28;20029;-59
2022/01/17 03:25:19;;;;;;;102.95;34.90;;;4.50;99.90;;;;;;5025478;28;20515;-59
2022/01/17 03:27:45;;;;;;;96.68;34.53;;;4.50;99.90;;;;;;5024013;28;20061;-59
2022/01/17 03:30:11;;;;;;;100.45;34.55;;;4.40;99.90;;;;;;5030326;28;20060;-60
2022/01/17 03:32:36;;;;;;;89.88;33.17;;;4.40;99.90;;;;;;5029445;28;20084;-59
2022/01/17 03:35:03;;;;;;;93.40;35.00;;;4.40;99.90;;;;;;5025241;28;20103;-59
2022/01/17 03:37:28;;;;;;;97.50;33.67;;;4.40;99.90;;;;;;5024649;28;20055;-60
2022/01/17 03:39:54;;;;;;;99.22;35.00;;;4.50;99.90;;;;;;5019435;28;20053;-59
2022/01/17 03:42:24;;;;;;;104.22;35.30;;;4.50;99.90;;;;;;5024534;28;20082;-60
2022/01/17 03:44:50;;;;;;;104.80;35.25;;;4.50;99.90;;;;;;5028040;28;20087;-60
2022/01/17 03:47:16;;;;;;;104.80;35.92;;;4.50;99.90;;;;;;5028612;28;20033;-60
2022/01/17 03:49:42;;;;;;;115.32;37.25;;;4.50;99.90;;;;;;5026539;28;20045;-60
2022/01/17 03:52:07;;;;;;;98.70;34.25;;;4.50;99.90;;;;;;5028253;28;20030;-59
2022/01/17 03:54:34;;;;;;;104.90;36.55;;;4.40;99.90;;;;;;5033891;28;20537;-60
2022/01/17 03:57:00;;;;;;;104.70;36.78;;;4.40;99.90;;;;;;5023391;28;20025;-59
2022/01/17 03:59:27;;;;;;;103.38;36.70;;;4.50;99.90;;;;;;5029934;28;20037;-60
2022/01/17 04:01:53;;;;;;;93.68;34.80;;;4.50;99.90;;;;;;5028829;28;20026;-60
2022/01/17 04:04:18;;;;;;;102.22;37.92;;;4.50;99.90;;;;;;5027299;28;20037;-59
2022/01/17 04:06:44;;;;;;;95.82;36.47;;;4.50;99.90;;;;;;5020421;28;20068;-60
2022/01/17 04:09:10;;;;;;;93.55;35.35;;;4.50;99.90;;;;;;5021556;28;20042;-59
2022/01/17 04:11:36;;;;;;;89.65;33.67;;;4.50;99.90;;;;;;5021677;28;20105;-59
2022/01/17 04:14:03;;;;;;;92.70;34.95;;;4.60;99.90;;;;;;5030087;28;20111;-60
2022/01/17 04:16:29;;;;;;;97.60;36.42;;;4.50;99.90;;;;;;5029716;28;20029;-60
2022/01/17 04:18:55;;;;;;;87.88;34.92;;;4.60;99.90;;;;;;5029967;28;20032;-60
2022/01/17 04:21:21;;;;;;;105.00;35.88;;;4.60;99.90;;;;;;5026211;28;20172;-59
2022/01/17 04:23:47;;;;;;;90.55;35.08;;;4.60;99.90;;;;;;5007585;28;20567;-60
2022/01/17 04:26:14;;;;;;;83.50;31.17;;;4.60;99.90;;;;;;5024741;28;20086;-60
2022/01/17 04:28:40;;;;;;;97.22;35.50;;;4.60;99.90;;;;;;5028550;28;20045;-60
2022/01/17 04:31:05;;;;;;;100.43;36.35;;;4.60;99.90;;;;;;5029761;28;20029;-60
2022/01/17 04:33:31;;;;;;;87.57;33.95;;;4.60;99.90;;;;;;5028924;28;20037;-59
2022/01/17 04:35:57;;;;;;;83.43;34.58;;;4.60;99.90;;;;;;5026314;28;20072;-60
2022/01/17 04:38:22;;;;;;;81.95;33.72;;;4.60;99.90;;;;;;5026287;28;20030;-60
2022/01/17 04:40:57;;;;;;;95.65;34.90;;;4.60;99.90;;;;;;5026069;28;20079;-59
2022/01/17 04:43:44;;;;;;;89.47;35.15;;;4.60;99.90;;;;;;5029434;28;20025;-60
2022/01/17 04:46:11;;;;;;;95.45;34.70;;;4.60;99.90;;;;;;5029403;28;20042;-60
2022/01/17 04:48:37;;;;;;;92.55;33.35;;;4.60;99.90;;;;;;5025292;28;20064;-60
2022/01/17 04:51:04;;;;;;;85.63;35.60;;;4.60;99.90;;;;;;5027009;28;20033;-59
2022/01/17 04:53:31;;;;;;;89.43;36.35;;;4.60;99.90;;;;;;5023296;28;20046;-59
2022/01/17 04:55:57;;;;;;;96.32;33.83;;;4.70;99.90;;;;;;5023861;28;20431;-60
2022/01/17 04:58:23;;;;;;;81.82;34.42;;;4.70;99.90;;;;;;5032283;28;20509;-59
2022/01/17 05:00:49;;;;;;;94.00;35.65;;;4.60;99.90;;;;;;5018799;28;20065;-60
2022/01/17 05:03:20;;;;;;;87.32;34.70;;;4.60;99.90;;;;;;5032321;28;20053;-59
2022/01/17 05:05:47;;;;;;;81.18;33.38;;;4.70;99.90;;;;;;5028694;28;20490;-60
2022/01/17 05:08:13;;;;;;;91.82;35.90;;;4.60;99.90;;;;;;5031865;28;20445;-59
2022/01/17 05:10:38;;;;;;;94.22;35.70;;;4.70;99.90;;;;;;5024044;28;20114;-59
2022/01/17 05:13:05;;;;;;;89.00;35.00;;;4.70;99.90;;;;;;5031010;28;20057;-60
2022/01/17 05:15:35;;;;;;;86.63;33.85;;;4.60;99.90;;;;;;5025446;28;20724;-58
2022/01/17 05:20:47;;;;;;;81.57;34.78;;;4.60;99.90;;;;;;5022113;28;20049;-58
2022/01/17 05:23:13;;;;;;;81.88;35.10;;;4.70;99.90;;;;;;5009755;28;20510;-59
2022/01/17 05:25:39;;;;;;;80.78;34.17;;;4.70;99.90;;;;;;5020658;28;20503;-58
2022/01/17 05:28:05;;;;;;;80.57;32.75;;;4.60;99.90;;;;;;5023610;28;20036;-59
2022/01/17 05:30:30;;;;;;;78.22;32.85;;;4.60;99.90;;;;;;5032396;28;20406;-59
2022/01/17 05:32:58;;;;;;;83.47;32.75;;;4.60;99.90;;;;;;5032208;28;20087;-58
2022/01/17 05:35:24;;;;;;;79.57;32.67;;;4.60;99.90;;;;;;5029449;28;20135;-59
2022/01/17 05:37:49;;;;;;;72.18;30.30;;;4.60;99.90;;;;;;5029277;28;20029;-59
2022/01/17 05:40:17;;;;;;;81.50;33.17;;;4.60;99.90;;;;;;5022315;28;20025;-59
2022/01/17 05:42:43;;;;;;;82.43;32.70;;;4.60;99.90;;;;;;5025880;28;20383;-59
2022/01/17 05:45:10;;;;;;;72.95;31.70;;;4.60;99.90;;;;;;5031229;28;20088;-59
2022/01/17 05:47:36;;;;;;;72.45;32.45;;;4.60;99.90;;;;;;5032144;28;20041;-57
2022/01/17 05:50:04;;;;;;;75.82;29.67;;;4.60;99.90;;;;;;5028610;28;20459;-58
2022/01/17 05:52:30;;;;;;;72.30;30.75;;;4.60;99.90;;;;;;5021307;28;20132;-60
2022/01/17 05:54:57;;;;;;;81.82;31.30;;;4.60;99.90;;;;;;5026622;28;20025;-59
2022/01/17 05:57:22;;;;;;;74.82;31.33;;;4.60;99.90;;;;;;5025682;28;20056;-57
2022/01/17 05:59:48;;;;;;;86.07;31.80;;;4.60;99.90;;;;;;5033045;28;20711;-58
2022/01/17 06:02:13;;;;;;;81.80;32.35;;;4.60;99.90;;;;;;5028534;28;20065;-59
2022/01/17 06:04:39;;;;;;;80.13;32.15;;;4.60;99.90;;;;;;5031963;28;20038;-59
2022/01/17 06:07:05;;;;;;;71.03;30.85;;;4.50;99.90;;;;;;5021805;28;20025;-59
2022/01/17 06:09:31;;;;;;;77.15;31.05;;;4.50;99.90;;;;;;5025406;28;20029;-60
2022/01/17 06:11:57;;;;;;;75.00;31.50;;;4.50;99.90;;;;;;5026047;28;20036;-57
2022/01/17 06:14:23;;;;;;;73.97;29.90;;;4.50;99.90;;;;;;5027117;28;20033;-60
2022/01/17 06:16:49;;;;;;;76.93;30.50;;;4.50;99.90;;;;;;5025320;28;20068;-60
2022/01/17 06:19:16;;;;;;;79.30;32.45;;;4.50;99.90;;;;;;5030033;28;20029;-59
2022/01/17 06:21:42;;;;;;;76.95;33.10;;;4.50;99.90;;;;;;5022990;28;20151;-58
2022/01/17 06:24:09;;;;;;;79.88;30.45;;;4.50;99.90;;;;;;5013035;28;20178;-58
2022/01/17 06:26:39;;;;;;;73.07;29.60;;;4.50;99.90;;;;;;5026226;28;20033;-59
2022/01/17 06:29:07;;;;;;;69.63;29.60;;;4.50;99.90;;;;;;5032256;28;20513;-59
2022/01/17 06:31:34;;;;;;;73.93;30.75;;;4.50;99.90;;;;;;5030929;28;20083;-54
2022/01/17 06:33:59;;;;;;;69.47;28.15;;;4.50;99.90;;;;;;5026461;28;20128;-60
2022/01/17 06:36:25;;;;;;;80.18;30.10;;;4.50;99.90;;;;;;5025679;28;20117;-60
2022/01/17 06:38:50;;;;;;;66.43;28.50;;;4.40;99.90;;;;;;5023174;28;20108;-59
2022/01/17 06:41:20;;;;;;;79.28;28.75;;;4.50;99.90;;;;;;5021615;28;20033;-58
2022/01/17 06:43:46;;;;;;;65.10;28.02;;;4.40;99.90;;;;;;5030112;28;20111;-60
2022/01/17 06:46:12;;;;;;;64.35;28.23;;;4.50;99.90;;;;;;5023370;28;20426;-59
2022/01/17 06:48:38;;;;;;;68.95;30.75;;;4.40;99.90;;;;;;5026842;28;20041;-58
2022/01/17 06:51:04;;;;;;;72.38;28.45;;;4.40;99.90;;;;;;5021159;28;20103;-57
2022/01/17 06:53:30;;;;;;;69.50;28.58;;;4.50;99.90;;;;;;5023206;28;20037;-58
2022/01/17 06:55:56;;;;;;;70.28;29.67;;;4.40;99.90;;;;;;5025249;28;20479;-59
2022/01/17 06:58:23;;;;;;;71.00;28.60;;;4.40;99.90;;;;;;5029629;28;20479;-59
2022/01/17 07:00:49;;;;;;;78.13;27.55;;;4.40;99.90;;;;;;5030884;28;20033;-59
2022/01/17 07:03:15;;;;;;;69.15;26.15;;;4.40;99.90;;;;;;5029681;28;20029;-60
2022/01/17 07:05:41;;;;;;;77.93;29.45;;;4.40;99.90;;;;;;5024990;28;20037;-58
2022/01/17 07:08:09;;;;;;;78.05;29.38;;;4.40;99.90;;;;;;5020088;28;20120;-59
2022/01/17 07:10:38;;;;;;;68.07;27.70;;;4.40;99.90;;;;;;5021096;28;20044;-58
2022/01/17 07:13:04;;;;;;;71.20;28.40;;;4.40;99.90;;;;;;5026928;28;20059;-59
2022/01/17 07:15:29;;;;;;;65.05;25.90;;;4.40;99.90;;;;;;5020731;28;20523;-60
2022/01/17 07:17:55;;;;;;;66.00;28.00;;;4.40;99.90;;;;;;5028742;28;20048;-60
2022/01/17 07:20:22;;;;;;;71.22;27.27;;;4.40;99.90;;;;;;5029280;28;20045;-59
2022/01/17 07:22:47;;;;;;;66.38;26.38;;;4.50;99.90;;;;;;5027909;28;20032;-59
2022/01/17 07:25:13;;;;;;;61.30;26.55;;;4.50;99.90;;;;;;5008228;28;20049;-59
2022/01/17 07:27:40;;;;;;;62.33;25.67;;;4.40;99.90;;;;;;5026909;28;20418;-55
2022/01/17 07:30:07;;;;;;;57.58;25.80;;;4.50;99.90;;;;;;5026757;28;20399;-59
2022/01/17 07:32:33;;;;;;;65.53;25.80;;;4.50;99.90;;;;;;5029858;28;20037;-60
2022/01/17 07:34:58;;;;;;;65.60;25.05;;;4.50;99.90;;;;;;5026918;28;20049;-60
2022/01/17 07:37:24;;;;;;;60.83;25.48;;;4.50;99.90;;;;;;5022600;28;20108;-59
2022/01/17 07:39:49;;;;;;;64.70;25.45;;;4.50;99.90;;;;;;5019124;28;20443;-58
2022/01/17 07:42:15;;;;;;;60.60;27.25;;;4.50;99.90;;;;;;5022549;28;20104;-59
2022/01/17 07:44:43;;;;;;;64.55;27.60;;;4.50;99.90;;;;;;5023869;28;20128;-59
2022/01/17 07:47:16;;;;;;;56.38;24.77;;;4.50;99.90;;;;;;5026948;28;20041;-60
2022/01/17 07:49:44;;;;;;;63.70;27.52;;;4.50;99.90;;;;;;5025840;28;20088;-59
2022/01/17 07:52:11;;;;;;;67.20;28.20;;;4.60;99.90;;;;;;5020261;28;20032;-60
2022/01/17 07:54:43;;;;;;;62.28;27.90;;;4.60;99.90;;;;;;5022831;28;20025;-60
2022/01/17 07:57:09;;;;;;;68.22;27.45;;;4.60;99.90;;;;;;5016409;28;20025;-60
2022/01/17 07:59:34;;;;;;;59.30;26.27;;;4.60;99.90;;;;;;5023614;28;20076;-59
2022/01/17 08:02:00;;;;;;;56.28;26.00;;;4.60;99.90;;;;;;5028863;28;20399;-60
2022/01/17 08:04:26;;;;;;;54.92;26.33;;;4.60;99.90;;;;;;5028809;28;20022;-60
2022/01/17 08:06:52;;;;;;;53.17;25.17;;;4.60;99.90;;;;;;5023753;28;20120;-60
2022/01/17 08:09:21;;;;;;;51.17;22.85;;;4.60;99.90;;;;;;5026298;28;20033;-59
2022/01/17 08:11:49;;;;;;;52.97;24.02;;;4.70;99.90;;;;;;5021464;28;20022;-60
2022/01/17 08:14:15;;;;;;;61.25;25.92;;;4.70;99.90;;;;;;5027157;28;20049;-60
2022/01/17 08:16:40;;;;;;;53.22;24.65;;;4.70;99.90;;;;;;5023690;28;20056;-60
2022/01/17 08:19:06;;;;;;;51.00;24.08;;;4.80;99.90;;;;;;5027179;28;20031;-60
2022/01/17 08:21:31;;;;;;;48.40;23.60;;;4.80;99.90;;;;;;5021957;28;20033;-60
2022/01/17 08:23:59;;;;;;;52.28;22.10;;;4.90;99.90;;;;;;5025946;28;20032;-61
2022/01/17 08:26:25;;;;;;;46.03;21.67;;;4.90;99.90;;;;;;5022612;28;20041;-59
2022/01/17 08:28:52;;;;;;;48.97;20.85;;;5.00;99.90;;;;;;5041105;28;20036;-57
2022/01/17 08:31:17;;;;;;;50.08;22.83;;;5.00;99.90;;;;;;5022672;28;20128;-59
2022/01/17 08:33:43;;;;;;;63.42;29.38;;;5.00;99.90;;;;;;5029536;28;20108;-57
2022/01/17 08:36:11;;;;;;;48.25;22.63;;;5.10;99.90;;;;;;5024046;28;20029;-60
2022/01/17 08:38:38;;;;;;;54.83;22.58;;;5.10;99.90;;;;;;5022190;28;20029;-59
2022/01/17 08:41:03;;;;;;;43.60;21.17;;;5.10;99.90;;;;;;5022723;28;20040;-60
2022/01/17 08:43:29;;;;;;;52.65;22.30;;;5.10;99.90;;;;;;5032159;28;20041;-61
2022/01/17 08:45:55;;;;;;;39.90;20.05;;;5.10;99.90;;;;;;5017347;28;20087;-60
2022/01/17 08:48:21;;;;;;;47.08;21.23;;;5.20;99.90;;;;;;5034444;28;20030;-59
2022/01/17 08:50:47;;;;;;;47.58;22.42;;;5.20;99.90;;;;;;5025791;28;20037;-61
2022/01/17 08:53:15;;;;;;;58.05;22.80;;;5.20;99.90;;;;;;5018620;28;20035;-60
2022/01/17 08:55:43;;;;;;;53.25;21.58;;;5.20;99.90;;;;;;5021774;28;20223;-60
2022/01/17 08:58:09;;;;;;;49.78;21.38;;;5.20;99.90;;;;;;5026814;28;20120;-60
2022/01/17 09:00:36;;;;;;;39.63;19.25;;;5.20;99.90;;;;;;5027964;28;20136;-61
2022/01/17 09:03:02;;;;;;;46.88;22.27;;;5.20;99.90;;;;;;5027290;28;20487;-59
2022/01/17 09:05:29;;;;;;;40.60;18.48;;;5.20;99.90;;;;;;5023325;28;20120;-61
2022/01/17 09:07:54;;;;;;;40.88;20.20;;;5.30;99.90;;;;;;5021095;28;20033;-60
2022/01/17 09:10:20;;;;;;;48.75;20.08;;;5.30;99.90;;;;;;5019027;28;20034;-61
2022/01/17 09:12:46;;;;;;;39.92;19.38;;;5.30;99.90;;;;;;5025701;28;20033;-60
2022/01/17 09:15:13;;;;;;;42.75;18.67;;;5.30;99.90;;;;;;5029094;28;20099;-60
2022/01/17 09:17:39;;;;;;;43.35;17.65;;;5.30;99.90;;;;;;5020568;28;20056;-60
2022/01/17 09:20:06;;;;;;;46.35;19.67;;;5.40;99.90;;;;;;5027419;28;20037;-60
2022/01/17 09:22:32;;;;;;;39.42;19.25;;;5.40;99.90;;;;;;5024949;28;20116;-61
2022/01/17 09:24:58;;;;;;;50.30;20.83;;;5.40;99.90;;;;;;5021379;28;20025;-60
2022/01/17 09:27:25;;;;;;;39.63;18.02;;;5.40;99.90;;;;;;5017259;28;20025;-60
2022/01/17 09:29:51;;;;;;;39.38;19.88;;;5.40;99.90;;;;;;5023628;28;20024;-60
2022/01/17 09:32:16;;;;;;;47.75;19.10;;;5.40;99.90;;;;;;5020961;28;20026;-60
2022/01/17 09:34:43;;;;;;;47.65;21.02;;;5.40;99.90;;;;;;5022939;28;20664;-60
2022/01/17 09:37:10;;;;;;;43.83;18.95;;;5.40;99.90;;;;;;5022365;28;20025;-60
2022/01/17 09:39:37;;;;;;;45.40;21.40;;;5.40;99.90;;;;;;5026238;28;20298;-56
2022/01/17 09:42:05;;;;;;;51.10;21.00;;;5.40;99.90;;;;;;5028430;28;20548;-59
2022/01/17 09:44:31;;;;;;;52.58;23.73;;;5.30;99.90;;;;;;5030653;28;20099;-59
2022/01/17 09:46:57;;;;;;;55.70;23.98;;;5.40;99.90;;;;;;5030087;28;20032;-60
2022/01/17 09:49:35;;;;;;;55.13;25.30;;;5.40;99.90;;;;;;5024462;28;20036;-61
2022/01/17 09:52:36;;;;;;;59.67;24.33;;;5.40;99.90;;;;;;5022062;28;20067;-61
2022/01/17 09:55:04;;;;;;;54.72;23.67;;;5.40;99.90;;;;;;5024274;28;20187;-61
2022/01/17 09:57:34;;;;;;;54.55;26.85;;;5.50;99.90;;;;;;5028080;28;20034;-60
2022/01/17 10:00:00;;;;;;;59.33;27.15;;;5.50;99.90;;;;;;5026138;28;20021;-60
2022/01/17 10:02:25;;;;;;;53.85;26.20;;;5.50;99.90;;;;;;5027090;28;20025;-61
2022/01/17 10:04:51;;;;;;;57.70;28.00;;;5.60;99.90;;;;;;5024449;28;20475;-60
2022/01/17 10:07:16;;;;;;;63.25;27.60;;;5.60;99.90;;;;;;5020972;28;20044;-59
2022/01/17 10:09:54;;;;;;;66.45;27.63;;;5.70;99.90;;;;;;5024630;28;20067;-60
2022/01/17 10:12:20;;;;;;;52.20;24.60;;;5.60;99.90;;;;;;5026311;28;20052;-61
2022/01/17 10:15:04;;;;;;;60.88;27.13;;;5.50;99.90;;;;;;5031679;28;20453;-61
2022/01/17 10:17:45;;;;;;;59.22;27.42;;;5.50;99.90;;;;;;5028943;28;20155;-59
2022/01/17 10:20:14;;;;;;;63.30;28.27;;;5.40;99.90;;;;;;5026669;28;20025;-60
2022/01/17 10:22:55;;;;;;;60.80;27.58;;;5.50;99.90;;;;;;5022325;28;20037;-60
2022/01/17 10:25:37;;;;;;;60.25;28.58;;;5.40;99.90;;;;;;5023489;28;20025;-61
2022/01/17 10:28:47;;;;;;;63.80;28.38;;;5.40;99.90;;;;;;5028893;28;20049;-61
2022/01/17 10:36:49;;;;;;;65.50;27.30;;;5.50;99.90;;;;;;5014533;28;20048;-59
2022/01/17 10:39:15;;;;;;;61.72;28.15;;;5.40;99.90;;;;;;5025140;28;20384;-59
2022/01/17 10:41:41;;;;;;;67.00;28.92;;;5.50;99.90;;;;;;5026184;28;20030;-60
2022/01/17 10:44:06;;;;;;;62.88;29.60;;;5.50;99.90;;;;;;5023050;28;20033;-60
2022/01/17 10:46:32;;;;;;;63.00;30.38;;;5.40;99.90;;;;;;5026588;28;20558;-61
2022/01/17 10:48:58;;;;;;;57.30;27.75;;;5.50;99.90;;;;;;5025084;28;20025;-60
2022/01/17 10:51:32;;;;;;;59.50;27.25;;;5.50;99.90;;;;;;5019013;28;20503;-59
2022/01/17 10:53:58;;;;;;;61.20;29.45;;;5.60;99.90;;;;;;5025791;28;20033;-61
2022/01/17 10:56:25;;;;;;;60.67;28.08;;;5.60;99.90;;;;;;5022889;28;20108;-61
2022/01/17 10:59:03;;;;;;;62.10;30.30;;;5.60;99.90;;;;;;5031172;28;20037;-60
2022/01/17 11:01:39;;;;;;;59.78;29.17;;;5.70;99.90;;;;;;5029361;28;20499;-60
2022/01/17 11:04:11;;;;;;;57.92;26.60;;;5.70;99.90;;;;;;5031444;28;20048;-60
2022/01/17 11:06:47;;;;;;;57.63;28.73;;;5.80;99.90;;;;;;5024896;28;20033;-61
2022/01/17 11:09:13;;;;;;;57.97;27.02;;;5.90;99.90;;;;;;5026040;28;20103;-60
2022/01/17 11:11:40;;;;;;;55.92;27.25;;;5.90;99.90;;;;;;5020241;28;20037;-60
2022/01/17 11:14:09;;;;;;;57.38;28.58;;;5.90;99.90;;;;;;5025766;28;20155;-58
2022/01/17 11:16:36;;;;;;;57.40;27.77;;;5.90;99.90;;;;;;5024578;28;20025;-60
2022/01/17 11:20:02;;;;;;;59.25;27.73;;;5.80;99.90;;;;;;5030182;28;20134;-61
2022/01/17 11:21:49;;;;;;;59.95;27.25;;;5.80;99.90;;;;;;5016719;28;20390;-61
2022/01/17 11:24:15;;;;;;;54.78;26.83;;;5.90;99.90;;;;;;5024298;28;20488;-59
2022/01/17 11:26:41;;;;;;;57.58;27.75;;;5.90;99.90;;;;;;5022097;28;20037;-60
2022/01/17 11:29:07;;;;;;;56.13;28.00;;;5.80;99.90;;;;;;5031532;28;20033;-60
2022/01/17 11:31:33;;;;;;;61.38;28.60;;;5.80;99.90;;;;;;5030459;28;20029;-60
2022/01/17 11:33:59;;;;;;;56.65;29.92;;;5.70;99.90;;;;;;5030223;28;20036;-58
2022/01/17 11:36:25;;;;;;;55.97;27.85;;;5.70;99.90;;;;;;5023007;28;20511;-59
2022/01/17 11:38:55;;;;;;;58.85;29.45;;;5.80;99.90;;;;;;5019271;28;20029;-60
2022/01/17 11:41:28;;;;;;;57.65;30.90;;;5.80;99.90;;;;;;5021627;28;20021;-59
2022/01/17 11:44:02;;;;;;;63.55;30.63;;;5.80;99.90;;;;;;5028152;28;20475;-61
2022/01/17 11:46:34;;;;;;;65.20;31.30;;;5.80;99.90;;;;;;5030154;28;20022;-60
2022/01/17 11:49:06;;;;;;;55.40;29.05;;;5.90;99.90;;;;;;5029730;28;20036;-59
2022/01/17 11:51:47;;;;;;;55.13;27.42;;;5.90;99.90;;;;;;5022263;28;20039;-60
2022/01/17 11:54:21;;;;;;;58.10;28.77;;;5.90;99.90;;;;;;5025295;28;20034;-61
2022/01/17 11:56:51;;;;;;;59.10;27.95;;;5.90;99.90;;;;;;5028353;28;20037;-60
2022/01/17 11:59:38;;;;;;;52.80;27.40;;;5.90;99.90;;;;;;5027720;28;20404;-61
2022/01/17 12:02:27;;;;;;;52.90;28.05;;;5.90;99.90;;;;;;5027809;28;20032;-60
2022/01/17 12:05:08;;;;;;;51.50;27.02;;;5.90;99.90;;;;;;5015870;28;20386;-61
2022/01/17 12:07:41;;;;;;;58.25;28.02;;;5.90;99.90;;;;;;5019934;28;20071;-61
2022/01/17 12:10:16;;;;;;;58.60;28.33;;;5.90;99.90;;;;;;5028507;28;20411;-60
2022/01/17 12:12:42;;;;;;;55.78;28.35;;;5.90;99.90;;;;;;5027193;28;20033;-60
2022/01/17 12:15:15;;;;;;;55.22;28.27;;;6.00;99.90;;;;;;5026317;28;20097;-61
2022/01/17 12:17:43;;;;;;;48.10;26.87;;;6.00;99.90;;;;;;5025174;28;20025;-61
2022/01/17 12:20:13;;;;;;;46.72;26.90;;;6.10;99.90;;;;;;5022445;28;20030;-61
2022/01/17 12:22:39;;;;;;;54.25;27.60;;;6.10;99.90;;;;;;5014834;28;20317;-59
2022/01/17 12:25:32;;;;;;;47.90;24.70;;;6.00;99.90;;;;;;5019462;28;20034;-61
2022/01/17 12:28:03;;;;;;;47.75;23.17;;;6.00;99.90;;;;;;5024588;28;20401;-61
2022/01/17 12:30:50;;;;;;;46.22;24.95;;;5.90;99.90;;;;;;5029494;28;20036;-61
2022/01/17 12:33:39;;;;;;;44.40;23.63;;;5.90;99.90;;;;;;5027982;28;20034;-61
2022/01/17 12:36:28;;;;;;;52.10;22.90;;;5.80;99.90;;;;;;5023669;28;20029;-60
2022/01/17 12:39:20;;;;;;;49.13;25.45;;;5.80;99.90;;;;;;5025169;28;20108;-60
2022/01/17 12:41:52;;;;;;;49.45;24.27;;;5.80;99.90;;;;;;5019348;28;20057;-60
2022/01/17 12:44:22;;;;;;;46.28;24.67;;;5.80;99.90;;;;;;5028968;28;20561;-61
2022/01/17 12:46:50;;;;;;;57.60;26.35;;;5.80;99.90;;;;;;5028539;28;20037;-59
2022/01/17 12:49:16;;;;;;;48.08;24.13;;;5.80;99.90;;;;;;5029491;28;20817;-60
2022/01/17 12:51:44;;;;;;;51.80;27.48;;;5.80;99.90;;;;;;5022885;28;20038;-59
2022/01/17 12:54:16;;;;;;;53.92;24.90;;;5.80;99.90;;;;;;5031930;28;20580;-60
2022/01/17 12:56:47;;;;;;;54.55;26.75;;;5.90;99.90;;;;;;5021166;28;20087;-60
2022/01/17 12:59:15;;;;;;;52.53;25.77;;;5.90;99.90;;;;;;5032768;28;20082;-60
2022/01/17 13:01:46;;;;;;;51.22;26.35;;;5.90;99.90;;;;;;5032453;28;20041;-61